createdAt,value
2022-10-22T00:04:51.903Z,22.30
2022-10-22T00:07:23.370Z,22.30
2022-10-22T00:09:54.852Z,15.30
2022-10-22T00:12:26.480Z,13.30
2022-10-22T00:14:58.259Z,14.40
2022-10-22T00:17:29.934Z,11.70
2022-10-22T00:20:01.371Z,17.30
2022-10-22T00:22:33.051Z,13.40
2022-10-22T00:25:04.919Z,12.10
2022-10-22T00:27:36.385Z,17.70
2022-10-22T00:30:09.457Z,11.20
2022-10-22T00:32:41.170Z,11.30
2022-10-22T00:35:13.090Z,10.90
2022-10-22T00:40:15.849Z,12.20
2022-10-22T00:42:47.300Z,11.30
2022-10-22T00:45:22.095Z,10.80
2022-10-22T00:47:55.848Z,11.80
2022-10-22T00:50:30.154Z,9.80
2022-10-22T00:53:01.679Z,11.80
2022-10-22T00:55:33.257Z,11.50
2022-10-22T00:58:04.911Z,10.20
2022-10-22T01:00:36.503Z,10.10
2022-10-22T01:03:08.145Z,10.40
2022-10-22T01:05:44.697Z,14.80
2022-10-22T01:08:20.341Z,11.80
2022-10-22T01:10:57.062Z,10.40
2022-10-22T01:13:36.700Z,12.40
2022-10-22T01:16:12.262Z,11.50
2022-10-22T01:18:49.347Z,10.80
2022-10-22T01:21:26.467Z,9.40
2022-10-22T01:24:20.439Z,9.30
2022-10-22T01:27:01.493Z,9.70
2022-10-22T01:29:34.807Z,9.20
2022-10-22T01:32:08.545Z,10.20
2022-10-22T01:34:40.511Z,8.00
2022-10-22T01:37:12.235Z,9.60
2022-10-22T01:39:43.665Z,9.50
2022-10-22T01:42:17.865Z,13.20
2022-10-22T01:44:50.541Z,9.60
2022-10-22T01:47:28.142Z,8.30
2022-10-22T01:50:16.284Z,8.60
2022-10-22T01:52:56.789Z,11.50
2022-10-22T01:55:30.507Z,8.90
2022-10-22T01:58:08.375Z,9.30
2022-10-22T02:00:41.482Z,10.80
2022-10-22T02:03:16.549Z,8.70
2022-10-22T02:05:51.633Z,9.90
2022-10-22T02:08:24.214Z,7.50
2022-10-22T02:10:55.760Z,9.20
2022-10-22T02:13:29.836Z,12.70
2022-10-22T02:16:01.493Z,9.30
2022-10-22T02:18:36.407Z,10.20
2022-10-22T02:21:10.593Z,9.50
2022-10-22T02:23:42.270Z,9.60
2022-10-22T02:26:18.158Z,11.00
2022-10-22T02:28:53.617Z,11.40
2022-10-22T02:31:28.062Z,9.70
2022-10-22T02:34:01.245Z,9.60
2022-10-22T02:36:32.910Z,9.70
2022-10-22T02:41:34.502Z,12.10
2022-10-22T02:44:08.637Z,14.50
2022-10-22T02:46:40.224Z,11.40
2022-10-22T02:49:11.646Z,9.30
2022-10-22T02:51:43.149Z,11.20
2022-10-22T02:54:14.646Z,11.60
2022-10-22T02:56:46.258Z,11.60
2022-10-22T02:59:18.216Z,15.30
2022-10-22T03:04:20.172Z,10.90
2022-10-22T03:06:51.765Z,11.70
2022-10-22T03:11:56.568Z,10.60
2022-10-22T03:16:57.966Z,12.60
2022-10-22T03:19:29.490Z,12.40
2022-10-22T03:22:02.493Z,12.10
2022-10-22T03:24:35.824Z,10.80
2022-10-22T03:27:07.323Z,11.60
2022-10-22T03:29:39.331Z,10.70
2022-10-22T03:32:10.894Z,12.30
2022-10-22T03:37:12.436Z,12.00
2022-10-22T03:39:43.911Z,11.40
2022-10-22T03:42:16.525Z,16.60
2022-10-22T03:44:48.485Z,13.50
2022-10-22T03:47:20.206Z,11.40
2022-10-22T03:52:21.496Z,11.60
2022-10-22T03:54:53.057Z,10.80
2022-10-22T03:57:25.738Z,10.80
2022-10-22T03:59:57.574Z,9.70
2022-10-22T04:02:29.261Z,10.50
2022-10-22T04:07:30.710Z,12.60
2022-10-22T04:10:02.503Z,12.20
2022-10-22T04:12:34.102Z,11.70
2022-10-22T04:17:37.953Z,13.20
2022-10-22T04:20:11.883Z,10.20
2022-10-22T04:22:43.376Z,10.00
2022-10-22T04:25:14.885Z,11.80
2022-10-22T04:30:17.275Z,11.60
2022-10-22T04:32:49.192Z,13.20
2022-10-22T04:35:20.771Z,11.20
2022-10-22T04:37:52.502Z,11.50
2022-10-22T04:42:54.137Z,11.90
2022-10-22T04:45:25.509Z,10.60
2022-10-22T04:47:57.199Z,12.90
2022-10-22T04:50:28.689Z,11.50
2022-10-22T04:53:00.204Z,11.10
2022-10-22T04:58:08.245Z,11.20
2022-10-22T05:03:09.571Z,10.20
2022-10-22T05:05:40.953Z,11.70
2022-10-22T05:08:12.658Z,11.00
2022-10-22T05:10:44.187Z,10.60
2022-10-22T05:13:15.992Z,9.20
2022-10-22T05:15:48.219Z,11.30
2022-10-22T05:18:22.619Z,9.80
2022-10-22T05:20:55.068Z,11.10
2022-10-22T05:23:26.593Z,10.80
2022-10-22T05:25:57.940Z,10.90
2022-10-22T05:28:29.539Z,10.80
2022-10-22T05:31:01.252Z,10.00
2022-10-22T05:36:03.022Z,12.10
2022-10-22T05:38:34.469Z,10.70
2022-10-22T05:41:07.036Z,11.90
2022-10-22T05:43:38.601Z,12.00
2022-10-22T05:48:40.210Z,12.50
2022-10-22T05:51:13.454Z,11.40
2022-10-22T05:53:45.453Z,12.60
2022-10-22T05:56:17.352Z,12.80
2022-10-22T05:58:48.916Z,11.30
2022-10-22T06:03:51.079Z,12.70
2022-10-22T06:06:25.214Z,13.50
2022-10-22T06:08:56.909Z,12.50
2022-10-22T06:14:04.133Z,10.30
2022-10-22T06:19:05.620Z,11.00
2022-10-22T06:21:37.243Z,9.60
2022-10-22T06:24:09.839Z,10.70
2022-10-22T06:26:41.262Z,13.70
2022-10-22T06:29:13.264Z,10.80
2022-10-22T06:31:44.870Z,10.60
2022-10-22T06:34:19.691Z,10.20
2022-10-22T06:36:51.964Z,10.20
2022-10-22T06:39:23.459Z,10.00
2022-10-22T06:41:54.966Z,10.50
2022-10-22T06:44:26.797Z,12.30
2022-10-22T06:46:59.035Z,11.40
2022-10-22T06:49:30.956Z,11.40
2022-10-22T06:52:02.656Z,9.00
2022-10-22T06:54:35.304Z,8.90
2022-10-22T06:57:06.688Z,10.00
2022-10-22T06:59:39.117Z,9.50
2022-10-22T07:02:11.903Z,8.50
2022-10-22T07:04:44.221Z,8.40
2022-10-22T07:07:16.476Z,9.10
2022-10-22T07:09:51.342Z,15.90
2022-10-22T07:12:23.054Z,9.90
2022-10-22T07:17:24.798Z,7.10
2022-10-22T07:19:56.602Z,8.00
2022-10-22T07:22:28.139Z,6.60
2022-10-22T07:25:01.613Z,6.80
2022-10-22T07:27:35.959Z,6.10
2022-10-22T07:30:10.211Z,6.10
2022-10-22T07:32:41.835Z,7.30
2022-10-22T07:37:43.858Z,5.10
2022-10-22T07:40:16.656Z,5.90
2022-10-22T07:42:48.165Z,9.00
2022-10-22T07:45:19.808Z,4.80
2022-10-22T07:47:52.327Z,5.50
2022-10-22T07:50:24.374Z,7.10
2022-10-22T07:52:58.189Z,5.20
2022-10-22T07:55:31.860Z,7.50
2022-10-22T07:58:03.294Z,5.80
2022-10-22T08:03:04.842Z,6.70
2022-10-22T08:05:36.392Z,6.00
2022-10-22T08:08:08.226Z,5.70
2022-10-22T08:13:09.716Z,5.60
2022-10-22T08:15:41.202Z,5.60
2022-10-22T08:18:12.886Z,5.80
2022-10-22T08:20:44.473Z,5.90
2022-10-22T08:23:15.883Z,4.90
2022-10-22T08:25:47.547Z,5.90
2022-10-22T08:28:22.054Z,5.30
2022-10-22T08:30:54.040Z,4.90
2022-10-22T08:33:25.559Z,4.80
2022-10-22T08:38:27.098Z,4.20
2022-10-22T08:41:02.733Z,4.70
2022-10-22T08:43:46.638Z,4.10
2022-10-22T08:46:26.501Z,6.60
2022-10-22T08:48:59.008Z,3.80
2022-10-22T08:51:31.893Z,3.40
2022-10-22T08:54:18.623Z,3.70
2022-10-22T08:56:52.434Z,3.20
2022-10-22T08:59:27.326Z,3.80
2022-10-22T09:01:59.016Z,3.00
2022-10-22T09:07:02.327Z,2.90
2022-10-22T09:09:35.877Z,2.60
2022-10-22T09:12:08.990Z,3.00
2022-10-22T09:14:40.682Z,3.50
2022-10-22T09:17:18.014Z,2.70
2022-10-22T09:19:55.993Z,3.20
2022-10-22T09:25:11.556Z,3.70
2022-10-22T09:27:43.498Z,2.50
2022-10-22T09:30:18.157Z,3.00
2022-10-22T09:32:49.740Z,3.90
2022-10-22T09:35:23.553Z,3.20
2022-10-22T09:37:57.987Z,3.30
2022-10-22T09:40:29.618Z,2.20
2022-10-22T09:43:01.241Z,2.50
2022-10-22T09:45:32.716Z,2.70
2022-10-22T09:48:13.444Z,3.70
2022-10-22T09:50:46.576Z,2.80
2022-10-22T09:53:21.639Z,3.60
2022-10-22T09:58:28.078Z,2.50
2022-10-22T10:01:01.034Z,3.20
2022-10-22T10:03:34.432Z,2.30
2022-10-22T10:06:07.571Z,2.30
2022-10-22T10:08:39.350Z,2.70
2022-10-22T10:13:51.270Z,3.00
2022-10-22T10:16:31.714Z,1.90
2022-10-22T10:19:14.768Z,2.20
2022-10-22T10:21:51.293Z,2.90
2022-10-22T10:24:31.685Z,3.80
2022-10-22T10:27:04.157Z,2.90
2022-10-22T10:29:47.903Z,2.40
2022-10-22T10:32:35.047Z,2.40
2022-10-22T10:35:12.873Z,2.70
2022-10-22T10:37:47.096Z,2.50
2022-10-22T10:40:28.912Z,2.00
2022-10-22T10:43:02.291Z,2.40
2022-10-22T10:45:37.870Z,2.60
2022-10-22T10:48:18.976Z,4.00
2022-10-22T10:50:57.914Z,2.60
2022-10-22T10:53:34.845Z,3.00
2022-10-22T10:56:09.593Z,2.40
2022-10-22T10:58:43.446Z,2.40
2022-10-22T11:01:21.237Z,2.40
2022-10-22T11:04:05.464Z,3.30
2022-10-22T11:06:37.381Z,5.80
2022-10-22T11:09:13.818Z,2.80
2022-10-22T11:11:48.744Z,2.80
2022-10-22T11:14:24.266Z,2.60
2022-10-22T11:17:01.999Z,3.00
2022-10-22T11:19:53.712Z,2.30
2022-10-22T11:22:30.079Z,2.80
2022-10-22T11:25:02.923Z,3.00
2022-10-22T11:27:38.099Z,2.90
2022-10-22T11:30:15.858Z,2.80
2022-10-22T11:32:48.887Z,4.60
2022-10-22T11:35:25.699Z,2.90
2022-10-22T11:37:58.155Z,3.00
2022-10-22T11:40:36.971Z,3.40
2022-10-22T11:43:09.484Z,2.90
2022-10-22T11:45:42.282Z,2.70
2022-10-22T11:48:20.544Z,2.60
2022-10-22T11:50:55.280Z,3.00
2022-10-22T11:53:33.478Z,2.60
2022-10-22T11:56:24.868Z,3.30
2022-10-22T11:58:57.040Z,3.10
2022-10-22T12:04:22.228Z,2.70
2022-10-22T12:07:03.504Z,2.90
2022-10-22T12:09:35.404Z,2.90
2022-10-22T12:12:14.815Z,2.70
2022-10-22T12:14:56.844Z,2.60
2022-10-22T12:17:28.924Z,3.00
2022-10-22T12:20:03.625Z,2.80
2022-10-22T12:22:37.440Z,3.30
2022-10-22T12:25:18.532Z,3.20
2022-10-22T12:27:53.568Z,2.70
2022-10-22T12:30:26.449Z,3.50
2022-10-22T12:32:58.665Z,3.00
2022-10-22T12:35:31.296Z,3.10
2022-10-22T12:38:04.122Z,2.70
2022-10-22T12:40:36.813Z,2.90
2022-10-22T12:43:12.488Z,2.90
2022-10-22T12:45:44.440Z,2.60
2022-10-22T12:48:19.721Z,2.70
2022-10-22T12:50:52.522Z,2.90
2022-10-22T12:53:25.608Z,3.10
2022-10-22T12:55:57.312Z,5.80
2022-10-22T12:58:30.580Z,3.50
2022-10-22T13:01:03.236Z,3.70
2022-10-22T13:03:38.587Z,2.70
2022-10-22T13:06:26.127Z,3.00
2022-10-22T13:09:09.910Z,2.90
2022-10-22T13:11:43.551Z,3.00
2022-10-22T13:14:27.563Z,2.80
2022-10-22T13:17:13.154Z,2.50
2022-10-22T13:19:47.849Z,2.90
2022-10-22T13:22:34.151Z,3.50
2022-10-22T13:25:22.570Z,3.20
2022-10-22T13:27:54.940Z,2.70
2022-10-22T13:30:27.655Z,5.40
2022-10-22T13:33:00.016Z,3.00
2022-10-22T13:35:33.457Z,3.30
2022-10-22T13:38:05.220Z,3.20
2022-10-22T13:40:37.240Z,3.40
2022-10-22T13:43:08.763Z,3.40
2022-10-22T13:45:40.522Z,3.10
2022-10-22T13:48:13.526Z,3.10
2022-10-22T13:50:45.804Z,3.80
2022-10-22T13:53:19.379Z,6.40
2022-10-22T13:55:51.539Z,3.30
2022-10-22T13:58:25.221Z,4.00
2022-10-22T14:00:57.605Z,2.90
2022-10-22T14:03:31.567Z,3.60
2022-10-22T14:06:03.075Z,3.10
2022-10-22T14:08:35.005Z,3.40
2022-10-22T14:11:06.524Z,3.50
2022-10-22T14:13:37.920Z,2.70
2022-10-22T14:16:12.718Z,2.90
2022-10-22T14:18:44.268Z,3.50
2022-10-22T14:21:15.869Z,2.60
2022-10-22T14:23:48.363Z,2.80
2022-10-22T14:26:24.621Z,3.30
2022-10-22T14:29:11.976Z,3.00
2022-10-22T14:31:44.816Z,2.80
2022-10-22T14:34:17.073Z,2.80
2022-10-22T14:36:48.450Z,4.10
2022-10-22T14:39:21.826Z,2.70
2022-10-22T14:41:53.450Z,2.70
2022-10-22T14:44:24.944Z,3.80
2022-10-22T14:46:56.699Z,3.50
2022-10-22T14:49:28.689Z,3.10
2022-10-22T14:52:00.320Z,3.40
2022-10-22T14:54:31.942Z,3.50
2022-10-22T14:57:03.722Z,3.30
2022-10-22T14:59:35.394Z,4.00
2022-10-22T15:02:06.949Z,4.30
2022-10-22T15:04:38.943Z,7.10
2022-10-22T15:07:10.392Z,5.50
2022-10-22T15:09:42.010Z,5.60
2022-10-22T15:14:43.860Z,6.30
2022-10-22T15:17:15.953Z,5.60
2022-10-22T15:19:47.511Z,5.90
2022-10-22T15:22:19.669Z,11.10
2022-10-22T15:24:53.070Z,6.20
2022-10-22T15:27:24.525Z,5.80
2022-10-22T15:29:57.341Z,6.30
2022-10-22T15:32:29.579Z,8.10
2022-10-22T15:35:01.261Z,6.90
2022-10-22T15:37:33.149Z,7.10
2022-10-22T15:40:05.082Z,7.50
2022-10-22T15:42:36.620Z,7.20
2022-10-22T15:45:10.121Z,7.50
2022-10-22T15:47:41.929Z,8.80
2022-10-22T15:50:15.329Z,10.50
2022-10-22T15:52:47.003Z,8.10
2022-10-22T15:55:19.898Z,8.70
2022-10-22T15:57:56.475Z,8.20
2022-10-22T16:00:30.727Z,8.20
2022-10-22T16:03:02.679Z,12.30
2022-10-22T16:05:34.516Z,8.80
2022-10-22T16:08:06.279Z,9.40
2022-10-22T16:13:07.929Z,11.30
2022-10-22T16:15:39.332Z,9.70
2022-10-22T16:18:10.724Z,12.00
2022-10-22T16:20:43.129Z,10.20
2022-10-22T16:23:15.830Z,15.10
2022-10-22T16:25:47.227Z,10.50
2022-10-22T16:28:18.746Z,12.30
2022-10-22T16:30:50.445Z,8.90
2022-10-22T16:35:51.942Z,9.70
2022-10-22T16:38:23.404Z,9.40
2022-10-22T16:40:54.930Z,10.00
2022-10-22T16:43:26.462Z,11.50
2022-10-22T16:45:57.778Z,11.40
2022-10-22T16:48:29.076Z,10.30
2022-10-22T16:51:00.500Z,13.10
2022-10-22T16:53:31.952Z,8.30
2022-10-22T16:56:03.460Z,10.90
2022-10-22T16:58:34.961Z,9.50
2022-10-22T17:01:09.988Z,7.60
2022-10-22T17:03:41.554Z,6.70
2022-10-22T17:06:13.192Z,6.80
2022-10-22T17:08:44.837Z,8.20
2022-10-22T17:11:18.154Z,10.30
2022-10-22T17:13:51.510Z,8.40
2022-10-22T17:16:23.815Z,7.90
2022-10-22T17:18:55.815Z,6.20
2022-10-22T17:21:27.421Z,5.30
2022-10-22T17:23:59.468Z,7.70
2022-10-22T17:26:33.465Z,5.80
2022-10-22T17:29:04.989Z,5.70
2022-10-22T17:31:37.715Z,5.30
2022-10-22T17:34:10.516Z,5.10
2022-10-22T17:36:42.095Z,5.90
2022-10-22T17:39:15.289Z,6.10
2022-10-22T17:41:47.316Z,4.90
2022-10-22T17:44:18.967Z,4.70
2022-10-22T17:46:50.517Z,5.10
2022-10-22T17:49:22.670Z,5.20
2022-10-22T17:51:54.187Z,6.10
2022-10-22T17:56:55.728Z,5.70
2022-10-22T17:59:27.271Z,5.10
2022-10-22T18:02:02.543Z,4.90
2022-10-22T18:04:34.326Z,5.50
2022-10-22T18:09:36.837Z,4.60
2022-10-22T18:12:09.416Z,4.20
2022-10-22T18:14:41.106Z,4.70
2022-10-22T18:19:42.817Z,5.30
2022-10-22T18:22:14.207Z,5.40
2022-10-22T18:24:46.329Z,4.20
2022-10-22T18:27:17.852Z,3.70
2022-10-22T18:29:51.770Z,4.70
2022-10-22T18:32:23.208Z,4.30
2022-10-22T18:34:54.633Z,4.40
2022-10-22T18:37:26.158Z,4.60
2022-10-22T18:39:57.530Z,3.70
2022-10-22T18:42:32.456Z,4.10
2022-10-22T18:45:06.688Z,3.80
2022-10-22T18:47:40.777Z,4.20
2022-10-22T18:50:13.367Z,4.30
2022-10-22T18:52:44.881Z,4.40
2022-10-22T18:55:16.656Z,4.80
2022-10-22T18:57:48.296Z,4.70
2022-10-22T19:00:20.324Z,5.40
2022-10-22T19:02:51.781Z,4.90
2022-10-22T19:05:23.617Z,6.20
2022-10-22T19:10:25.017Z,5.50
2022-10-22T19:12:56.482Z,8.20
2022-10-22T19:18:00.711Z,7.10
2022-10-22T19:20:32.173Z,5.80
2022-10-22T19:23:03.937Z,11.40
2022-10-22T19:28:05.296Z,6.80
2022-10-22T19:30:37.184Z,7.40
2022-10-22T19:35:40.898Z,7.00
2022-10-22T19:38:12.311Z,7.40
2022-10-22T19:40:45.496Z,6.50
2022-10-22T19:43:18.950Z,5.70
2022-10-22T19:45:50.704Z,6.50
2022-10-22T19:48:22.389Z,6.20
2022-10-22T19:50:53.926Z,6.50
2022-10-22T19:53:25.358Z,6.90
2022-10-22T19:55:57.664Z,5.20
2022-10-22T19:58:30.616Z,5.50
2022-10-22T20:01:05.893Z,5.40
2022-10-22T20:03:38.190Z,6.50
2022-10-22T20:06:11.123Z,5.90
2022-10-22T20:08:42.719Z,4.80
2022-10-22T20:13:48.053Z,5.20
2022-10-22T20:16:24.452Z,4.40
2022-10-22T20:18:56.024Z,4.70
2022-10-22T20:21:27.587Z,5.20
2022-10-22T20:23:59.111Z,5.20
2022-10-22T20:26:31.885Z,5.40
2022-10-22T20:29:03.418Z,5.30
2022-10-22T20:31:36.252Z,4.60
2022-10-22T20:34:07.917Z,5.20
2022-10-22T20:39:10.391Z,4.80
2022-10-22T20:41:42.290Z,5.20
2022-10-22T20:44:20.664Z,5.50
2022-10-22T20:46:52.268Z,5.40
2022-10-22T20:49:23.985Z,5.90
2022-10-22T20:51:55.490Z,5.20
2022-10-22T20:54:27.128Z,6.30
2022-10-22T20:56:58.601Z,5.90
2022-10-22T20:59:33.476Z,5.80
2022-10-22T21:02:05.001Z,5.90
2022-10-22T21:04:36.581Z,5.50
2022-10-22T21:07:07.915Z,5.50
2022-10-22T21:09:39.439Z,5.90
2022-10-22T21:12:11.220Z,6.00
2022-10-22T21:17:12.667Z,6.00
2022-10-22T21:19:44.153Z,5.20
2022-10-22T21:22:15.643Z,5.40
2022-10-22T21:24:47.428Z,5.70
2022-10-22T21:27:19.046Z,5.70
2022-10-22T21:29:50.859Z,6.30
2022-10-22T21:34:52.250Z,5.30
2022-10-22T21:39:54.577Z,5.30
2022-10-22T21:42:26.009Z,6.90
2022-10-22T21:44:57.486Z,6.90
2022-10-22T21:47:29.051Z,5.80
2022-10-22T21:50:00.552Z,7.00
2022-10-22T21:52:32.066Z,5.50
2022-10-22T21:55:03.542Z,5.50
2022-10-22T21:57:35.156Z,6.10
2022-10-22T22:00:08.521Z,6.00
2022-10-22T22:02:50.252Z,5.60
2022-10-22T22:07:53.128Z,5.40
2022-10-22T22:10:25.424Z,7.30
2022-10-22T22:12:56.951Z,5.90
2022-10-22T22:15:29.106Z,6.30
2022-10-22T22:18:00.489Z,5.50
2022-10-22T22:20:32.158Z,6.10
2022-10-22T22:23:03.857Z,5.70
2022-10-22T22:25:35.289Z,6.30
2022-10-22T22:28:06.960Z,5.90
2022-10-22T22:30:38.432Z,5.50
2022-10-22T22:33:10.592Z,5.70
2022-10-22T22:35:42.136Z,6.20
2022-10-22T22:40:43.530Z,6.00
2022-10-22T22:43:16.617Z,6.90
2022-10-22T22:45:48.080Z,6.80
2022-10-22T22:48:19.732Z,7.20
2022-10-22T22:53:21.119Z,5.80
2022-10-22T22:55:52.534Z,7.90
2022-10-22T22:58:24.044Z,6.10
2022-10-22T23:03:25.852Z,9.30
2022-10-22T23:05:57.510Z,5.60
2022-10-22T23:08:28.947Z,6.20
2022-10-22T23:11:06.544Z,6.20
2022-10-22T23:13:38.162Z,6.30
2022-10-22T23:18:40.439Z,6.00
2022-10-22T23:21:14.690Z,6.00
2022-10-22T23:23:47.456Z,6.30
2022-10-22T23:26:20.472Z,6.30
2022-10-22T23:28:51.900Z,5.70
2022-10-22T23:31:23.504Z,5.50
2022-10-22T23:33:54.897Z,6.50
2022-10-22T23:36:26.521Z,5.80
2022-10-22T23:38:58.231Z,5.80
2022-10-22T23:43:59.695Z,5.60
2022-10-22T23:46:31.441Z,6.40
2022-10-22T23:49:02.916Z,5.60
2022-10-22T23:51:34.448Z,6.80
2022-10-22T23:54:06.971Z,5.60
2022-10-22T23:56:38.543Z,5.30
2022-10-22T23:59:10.102Z,5.70
